Allen's Hourly Summary for Friday, July 6, 2018
Hour Temp
(f)
RH
(%)
Solar Rad.
(MJ/m2)
Rainfall
(in)
Wind
(mph)
7/6/2018 12:00 AM 81 64 0 0 1.94
7/6/2018 1:00 AM 80 68 0 0 1.34
7/6/2018 2:00 AM 79 70 0 0 0.58
7/6/2018 3:00 AM 78 73 0 0 0.49
7/6/2018 4:00 AM 77 76 0 0 0.77
7/6/2018 5:00 AM 76 78 0 0 0.91
7/6/2018 6:00 AM 76 78 0 0 1.27
7/6/2018 7:00 AM 75 79 0.06 0 1.4
7/6/2018 8:00 AM 77 71 0.58 0 2.03
7/6/2018 9:00 AM 81 65 1.24 0 2.66
7/6/2018 10:00 AM 84 58 1.9 0 2.39
7/6/2018 11:00 AM 87 52 2.45 0 2.51
7/6/2018 12:00 PM 89 47 2.68 0 3.05
7/6/2018 1:00 PM 91 40 3.22 0 3.75
7/6/2018 2:00 PM 93 37 3.31 0 3.63
7/6/2018 3:00 PM 92 34 1.88 0.06 4.65
7/6/2018 4:00 PM 75 67 0.23 0.19 3.3
7/6/2018 5:00 PM 76 80 0.4 0 0.44
7/6/2018 6:00 PM 80 59 0.99 0 2.3
7/6/2018 7:00 PM 80 62 0.92 0 2.76
7/6/2018 8:00 PM 80 63 0.21 0 2.28
7/6/2018 9:00 PM 79 70 0.01 0 1.62
7/6/2018 10:00 PM 77 73 0 0 2.05
7/6/2018 11:00 PM 77 72 0 0 1.49
Data Summary 80 64 20.08 0.25 2.07